Terminal Aerodrome Forecast
Issued by NWS Nashville, TN

Home | Current Version | Previous Version | Text Only | Print | Product List | Glossary On
Versions: 1 2 3 4 5 6 7 8 9 10 11 12 13 14 15 16 17 18 19 20 21 22 23 24 25 26 27 28 29 30
840
FTUS44 KOHX 190520
TAFCSV
TAF
KCSV 190520Z 1906/2006 00000KT P6SM OVC250
     FM191300 12003KT 6SM -RA BR OVC020
     FM191600 14007KT 4SM -RA BR OVC015
     FM191900 14007KT 2SM -RA BR OVC007
     FM200000 15007KT 2SM -RA BR OVC003=

USA.gov is the U.S. government's official web portal to all federal, state and local government web resources and services.